Michigan City, IN

5:27 AM CST on February 20, 2017 (GMT -0600)
Michigan City Municipal

Weather History for KMGC - February, 2014

Change the Weather History Date:

Wednesday, February 26, 2014

  Actual Average (KSBN) Record (KSBN)
Temperature  
Mean Temperature 14 °F -  
Max Temperature 19 °F 39 °F 67 °F (1932)
Min Temperature 8 °F 21 °F -6 °F (1963)
Degree Days  
Heating Degree Days 52    
Moisture  
Dew Point -1 °F    
Average Humidity 54    
Maximum Humidity 67    
Minimum Humidity 44    
Precipitation  
Precipitation 0.00 in - - ()
Sea Level Pressure  
Sea Level Pressure 30.01 in    
Wind  
Wind Speed 13 mph (WSW)    
Max Wind Speed 21 mph    
Max Gust Speed 30 mph    
Visibility 10 miles    
Events      
Averages and records for this station are not official NWS values.
T = Trace of Precipitation, MM = Missing Value Source: NWS Daily Summary

Daily Weather History Graph

Daily Weather History Graph

Search for Another Location

Airport or City:

Trip Planner

Search our weather history database for the weather conditions in past years. The results will help you decide how hot, cold, wet, or windy it might be!

Date:

Astronomy

Feb. 26, 2014 Rise Set
Actual Time 6:26 AM CST 5:34 PM CST
Civil Twilight 5:58 AM CST 6:02 PM CST
Nautical Twilight 5:26 AM CST 6:34 PM CST
Astronomical Twilight 4:54 AM CST 7:06 PM CST
Moon 4:14 AM CST (2/26) 2:46 PM CST (2/26)
Length of Visible Light 12h 03m
Length of Day
11h 07m
Waning Crescent, 10% of the Moon is Illuminated
Feb 26
Waning Crescent
Mar 1
New
Mar 8
First Quarter
Mar 16
Full
Mar 23
Last Quarter

Hourly Weather History & Observations

Time (CST) Temp. Windchill Dew Point Humidity Pressure Visibility Wind Dir Wind Speed Gust Speed Precip Events Conditions
12:15 AM 12.2 °F -2.5 °F -0.4 °F 57% 30.17 in 10.0 mi WNW 12.7 mph 18.4 mph N/A   Mostly Cloudy
12:35 AM 10.4 °F -4.8 °F -0.4 °F 62% 30.17 in 10.0 mi WNW 12.7 mph 23.0 mph N/A   Overcast
12:50 AM 10.4 °F -5.4 °F -0.4 °F 62% 30.17 in 10.0 mi WNW 13.8 mph 20.7 mph N/A   Overcast
1:15 AM 10.4 °F -3.3 °F -0.4 °F 62% 30.17 in 10.0 mi WNW 10.4 mph 20.7 mph N/A   Overcast
1:35 AM 10.4 °F -6.6 °F -0.4 °F 62% 30.17 in 10.0 mi WNW 16.1 mph 26.5 mph N/A   Overcast
1:55 AM 10.4 °F -5.4 °F -0.4 °F 62% 30.18 in 10.0 mi WNW 13.8 mph 19.6 mph N/A   Overcast
2:15 AM 10.4 °F -5.4 °F -0.4 °F 62% 30.18 in 10.0 mi WNW 13.8 mph 21.9 mph N/A   Overcast
2:35 AM 10.4 °F -4.1 °F -0.4 °F 62% 30.18 in 10.0 mi WNW 11.5 mph 16.1 mph N/A   Overcast
2:55 AM 10.4 °F -3.3 °F -0.4 °F 62% 30.18 in 10.0 mi WNW 10.4 mph 18.4 mph N/A   Overcast
3:15 AM 10.4 °F -2.4 °F -0.4 °F 62% 30.17 in 10.0 mi WNW 9.2 mph 20.7 mph N/A   Overcast
3:35 AM 10.4 °F -5.4 °F -0.4 °F 62% 30.17 in 10.0 mi WNW 13.8 mph 19.6 mph N/A   Overcast
3:55 AM 10.4 °F -5.4 °F -0.4 °F 62% 30.17 in 10.0 mi WNW 13.8 mph 20.7 mph N/A   Overcast
4:15 AM 10.4 °F -4.1 °F -0.4 °F 62% 30.17 in 10.0 mi WNW 11.5 mph 16.1 mph N/A   Overcast
4:35 AM 10.4 °F -4.8 °F -0.4 °F 62% 30.17 in 10.0 mi WNW 12.7 mph 19.6 mph N/A   Overcast
4:55 AM 8.6 °F -4.7 °F -2.2 °F 62% 30.17 in 10.0 mi WNW 9.2 mph 16.1 mph N/A   Overcast
5:15 AM 10.4 °F -3.3 °F -0.4 °F 62% 30.18 in 10.0 mi WNW 10.4 mph 19.6 mph N/A   Overcast
5:35 AM 8.6 °F -5.5 °F -2.2 °F 62% 30.19 in 10.0 mi WNW 10.4 mph 16.1 mph N/A   Overcast
5:55 AM 8.6 °F -4.7 °F -2.2 °F 62% 30.19 in 10.0 mi WNW 9.2 mph 18.4 mph N/A   Overcast
6:15 AM 8.6 °F -7.0 °F -2.2 °F 62% 30.19 in 10.0 mi WNW 12.7 mph 19.6 mph N/A   Overcast
6:35 AM 8.6 °F -2.6 °F -2.2 °F 62% 30.19 in 10.0 mi WNW 6.9 mph 17.3 mph N/A   Overcast
6:55 AM 8.6 °F -3.7 °F -2.2 °F 62% 30.18 in 10.0 mi WNW 8.1 mph - N/A   Overcast
7:15 AM 8.6 °F -2.6 °F -2.2 °F 62% 30.19 in 10.0 mi WNW 6.9 mph - N/A   Overcast
7:30 AM 8.6 °F -3.7 °F -2.2 °F 62% 30.19 in 10.0 mi West 8.1 mph - N/A   Overcast
7:55 AM 8.6 °F -2.6 °F -4.0 °F 57% 30.18 in 10.0 mi WNW 6.9 mph - N/A   Overcast
8:15 AM 8.6 °F -4.7 °F -2.2 °F 62% 30.19 in 10.0 mi West 9.2 mph - N/A   Mostly Cloudy
8:35 AM 8.6 °F -5.5 °F -4.0 °F 57% 30.19 in 10.0 mi WNW 10.4 mph - N/A   Overcast
8:55 AM 8.6 °F -5.5 °F -4.0 °F 57% 30.19 in 10.0 mi WNW 10.4 mph 17.3 mph N/A   Mostly Cloudy
9:15 AM 8.6 °F -6.3 °F -0.4 °F 67% 30.18 in 5.0 mi West 11.5 mph 17.3 mph N/A   Haze
9:35 AM 8.6 °F -4.7 °F -4.0 °F 57% 30.17 in 10.0 mi WSW 9.2 mph - N/A   Overcast
9:55 AM 10.4 °F -6.0 °F -2.2 °F 57% 30.17 in 10.0 mi WSW 15.0 mph 20.7 mph N/A   Mostly Cloudy
10:15 AM 10.4 °F -4.1 °F -4.0 °F 52% 30.16 in 10.0 mi WSW 11.5 mph 20.7 mph N/A   Scattered Clouds
10:35 AM 10.4 °F -0.4 °F -7.6 °F 44% 30.15 in 10.0 mi West 6.9 mph - N/A   Clear
10:55 AM 12.2 °F -1.8 °F -5.8 °F 45% 30.14 in 10.0 mi WSW 11.5 mph 20.7 mph N/A   Clear
11:15 AM 12.2 °F 0.7 °F -5.8 °F 45% 30.13 in 10.0 mi SSW 8.1 mph 18.4 mph N/A   Clear
11:35 AM 12.2 °F -3.1 °F -5.8 °F 45% 30.12 in 10.0 mi SW 13.8 mph 17.3 mph N/A   Clear
11:55 AM 12.2 °F -1.0 °F -5.8 °F 45% 30.10 in 10.0 mi SSW 10.4 mph 18.4 mph N/A   Clear
12:15 PM 14.0 °F -0.2 °F -4.0 °F 45% 30.09 in 10.0 mi SSW 12.7 mph 18.4 mph N/A   Clear
12:35 PM 12.2 °F -3.1 °F -4.0 °F 48% 30.07 in 10.0 mi SSW 13.8 mph 21.9 mph N/A   Clear
12:55 PM 14.0 °F -2.0 °F -4.0 °F 45% 30.05 in 10.0 mi SW 16.1 mph 23.0 mph N/A   Clear
1:15 PM 14.0 °F -2.0 °F -4.0 °F 45% 30.03 in 10.0 mi SW 16.1 mph 21.9 mph N/A   Clear
1:35 PM 14.0 °F -0.2 °F -4.0 °F 45% 30.01 in 10.0 mi SW 12.7 mph 23.0 mph N/A   Scattered Clouds
1:55 PM 14.0 °F -1.4 °F -4.0 °F 45% 29.99 in 10.0 mi WSW 15.0 mph 20.7 mph N/A   Mostly Cloudy
2:15 PM 15.8 °F 0.9 °F -2.2 °F 45% 29.97 in 10.0 mi SW 15.0 mph 21.9 mph N/A   Overcast
2:35 PM 15.8 °F 0.3 °F -2.2 °F 45% 29.95 in 10.0 mi SW 16.1 mph 21.9 mph N/A   Scattered Clouds
2:55 PM 14.0 °F -1.4 °F -2.2 °F 49% 29.95 in 10.0 mi SW 15.0 mph 24.2 mph N/A   Clear
3:15 PM 14.0 °F -2.0 °F -0.4 °F 53% 29.94 in 10.0 mi SW 16.1 mph 25.3 mph N/A   Clear
3:35 PM 14.0 °F -3.9 °F -0.4 °F 53% 29.92 in 10.0 mi SW 20.7 mph 26.5 mph N/A   Clear
3:55 PM 14.0 °F -2.5 °F -0.4 °F 53% 29.90 in 10.0 mi SW 17.3 mph 24.2 mph N/A   Clear
4:15 PM 14.0 °F -3.4 °F -0.4 °F 53% 29.89 in 10.0 mi SW 19.6 mph 26.5 mph N/A   Clear
4:35 PM 14.0 °F -1.4 °F -2.2 °F 49% 29.88 in 10.0 mi SW 15.0 mph 23.0 mph N/A   Scattered Clouds
4:55 PM 14.0 °F -0.2 °F -2.2 °F 49% 29.86 in 10.0 mi SW 12.7 mph 25.3 mph N/A   Mostly Cloudy
5:15 PM 15.8 °F 0.9 °F -0.4 °F 49% 29.84 in 10.0 mi SW 15.0 mph 23.0 mph N/A   Overcast
5:35 PM 14.0 °F -2.5 °F -0.4 °F 53% 29.84 in 10.0 mi SW 17.3 mph 24.2 mph N/A   Overcast
5:55 PM 14.0 °F -2.5 °F -2.2 °F 49% 29.83 in 10.0 mi SW 17.3 mph 24.2 mph N/A   Mostly Cloudy
6:15 PM 14.0 °F -1.4 °F -0.4 °F 53% 29.82 in 10.0 mi SW 15.0 mph 23.0 mph N/A   Clear
6:35 PM 14.0 °F -3.9 °F -0.4 °F 53% 29.81 in 10.0 mi SW 20.7 mph 26.5 mph N/A   Scattered Clouds
6:55 PM 14.0 °F -0.2 °F -0.4 °F 53% 29.80 in 10.0 mi SW 12.7 mph 21.9 mph N/A   Overcast
7:15 PM 14.0 °F -2.5 °F -0.4 °F 53% 29.80 in 10.0 mi SW 17.3 mph 26.5 mph N/A   Overcast
7:35 PM 14.0 °F -3.4 °F -0.4 °F 53% 29.79 in 10.0 mi SW 19.6 mph 28.8 mph N/A   Overcast
7:55 PM 14.0 °F -2.0 °F -0.4 °F 53% 29.79 in 10.0 mi WSW 16.1 mph - N/A   Overcast
8:15 PM 14.0 °F -3.9 °F -0.4 °F 53% 29.79 in 10.0 mi WSW 20.7 mph 26.5 mph N/A   Overcast
8:35 PM 15.8 °F 0.3 °F -0.4 °F 49% 29.79 in 10.0 mi WSW 16.1 mph 23.0 mph N/A   Overcast
8:55 PM 15.8 °F 0.3 °F -0.4 °F 49% 29.77 in 10.0 mi WSW 16.1 mph 25.3 mph N/A   Overcast
9:15 PM 15.8 °F 0.9 °F -0.4 °F 49% 29.75 in 10.0 mi SW 15.0 mph 21.9 mph N/A   Overcast
9:35 PM 15.8 °F -1.1 °F 1.4 °F 53% 29.74 in 10.0 mi SW 19.6 mph 24.2 mph N/A   Overcast
9:55 PM 17.6 °F 2.7 °F 1.4 °F 49% 29.72 in 10.0 mi SW 16.1 mph 24.2 mph N/A   Overcast
10:15 PM 17.6 °F 2.2 °F 1.4 °F 49% 29.70 in 10.0 mi WSW 17.3 mph 25.3 mph N/A   Overcast
10:35 PM 17.6 °F 2.2 °F 1.4 °F 49% 29.69 in 10.0 mi WSW 17.3 mph 28.8 mph N/A   Overcast
10:55 PM 17.6 °F 2.7 °F 3.2 °F 53% 29.67 in 10.0 mi WSW 16.1 mph 29.9 mph N/A   Overcast
11:15 PM 19.4 °F 4.1 °F 3.2 °F 49% 29.66 in 10.0 mi WSW 18.4 mph 26.5 mph N/A   Overcast
11:35 PM 19.4 °F 6.6 °F 5.0 °F 54% 29.65 in 10.0 mi WSW 12.7 mph 23.0 mph N/A   Overcast
11:55 PM 19.4 °F 4.5 °F 5.0 °F 54% 29.64 in 10.0 mi WSW 17.3 mph 20.7 mph N/A   Overcast